Terminal Aerodrome Forecast
Issued by NWS

Home | Current Version | Previous Version | Text Only | Print | Product List | Glossary On
Versions: 1 2 3 4 5 6 7 8 9 10 11 12 13 14 15 16 17 18 19 20 21 22 23 24 25 26 27 28 29 30 31 32 33 34 35 36 37 38 39 40 41 42 43 44 45 46 47 48 49
000
FTUS43 KDTX 190534
TAFPTK
TAF
KPTK 190534Z 1906/2006 36004KT P6SM OVC015
      TEMPO 1906/1908 6SM -FZDZSN SCT008 OVC012
     FM191600 34003KT P6SM BKN025
     FM192000 31005KT P6SM SCT025
     FM200000 24003KT P6SM SKC=

USA.gov is the U.S. government's official web portal to all federal, state and local government web resources and services.